<?xml version="1.0" encoding="UTF-8" standalone="no" ?>
<gpx xmlns="http://www.topografix.com/GPX/1/1" xmlns:xsi="http://www.w3.org/2001/XMLSchema-instance" xsi:schemaLocation="http://www.topografix.com/GPX/1/1 http://www.topografix.com/GPX/1/1/gpx.xsd" version="1.1" creator="VisuGPX - https://www.visugpx.com">
  <metadata>
    <name>Thoissey 18Km</name>
  </metadata>
  <trk>
    <name><![CDATA[Thoissey  18 km-20744478]]></name>
    <extensions>
      <line xmlns="http://www.topografix.com/GPX/gpx_style/0/2">
        <color>0000FF</color>
        <width>4</width>
      </line>
    </extensions>
    <trkseg>
      <trkpt lat="46.17159" lon="4.80272">
        <ele>175</ele>
        <time>2025-02-21T17:56:54Z</time>
      </trkpt>
      <trkpt lat="46.17152" lon="4.80234">
        <ele>175</ele>
        <time>2025-02-21T17:57:30Z</time>
      </trkpt>
      <trkpt lat="46.1713" lon="4.80141">
        <ele>174</ele>
        <time>2025-02-21T17:59:01Z</time>
      </trkpt>
      <trkpt lat="46.171" lon="4.80012">
        <ele>172</ele>
        <time>2025-02-21T18:01:07Z</time>
      </trkpt>
      <trkpt lat="46.17089" lon="4.79969">
        <ele>173</ele>
        <time>2025-02-21T18:01:49Z</time>
      </trkpt>
      <trkpt lat="46.17148" lon="4.79938">
        <ele>173</ele>
        <time>2025-02-21T18:03:13Z</time>
      </trkpt>
      <trkpt lat="46.17198" lon="4.79934">
        <ele>173</ele>
        <time>2025-02-21T18:04:20Z</time>
      </trkpt>
      <trkpt lat="46.17204" lon="4.79923">
        <ele>173</ele>
        <time>2025-02-21T18:04:33Z</time>
      </trkpt>
      <trkpt lat="46.1722" lon="4.79909">
        <ele>173</ele>
        <time>2025-02-21T18:04:58Z</time>
      </trkpt>
      <trkpt lat="46.17257" lon="4.79901">
        <ele>174</ele>
        <time>2025-02-21T18:05:48Z</time>
      </trkpt>
      <trkpt lat="46.17351" lon="4.79816">
        <ele>172</ele>
        <time>2025-02-21T18:08:16Z</time>
      </trkpt>
      <trkpt lat="46.17333" lon="4.79644">
        <ele>172</ele>
        <time>2025-02-21T18:10:56Z</time>
      </trkpt>
      <trkpt lat="46.17262" lon="4.79475">
        <ele>169</ele>
        <time>2025-02-21T18:13:59Z</time>
      </trkpt>
      <trkpt lat="46.17236" lon="4.79382">
        <ele>169</ele>
        <time>2025-02-21T18:15:32Z</time>
      </trkpt>
      <trkpt lat="46.17229" lon="4.79281">
        <ele>169</ele>
        <time>2025-02-21T18:17:06Z</time>
      </trkpt>
      <trkpt lat="46.17283" lon="4.79263">
        <ele>168</ele>
        <time>2025-02-21T18:18:20Z</time>
      </trkpt>
      <trkpt lat="46.1734" lon="4.79213">
        <ele>167</ele>
        <time>2025-02-21T18:19:49Z</time>
      </trkpt>
      <trkpt lat="46.17457" lon="4.79052">
        <ele>168</ele>
        <time>2025-02-21T18:23:24Z</time>
      </trkpt>
      <trkpt lat="46.17516" lon="4.78959">
        <ele>168</ele>
        <time>2025-02-21T18:25:21Z</time>
      </trkpt>
      <trkpt lat="46.17532" lon="4.78933">
        <ele>168</ele>
        <time>2025-02-21T18:25:53Z</time>
      </trkpt>
      <trkpt lat="46.17565" lon="4.78858">
        <ele>168</ele>
        <time>2025-02-21T18:27:15Z</time>
      </trkpt>
      <trkpt lat="46.17583" lon="4.78835">
        <ele>168</ele>
        <time>2025-02-21T18:27:47Z</time>
      </trkpt>
      <trkpt lat="46.1765" lon="4.78794">
        <ele>170</ele>
        <time>2025-02-21T18:29:24Z</time>
      </trkpt>
      <trkpt lat="46.17713" lon="4.78747">
        <ele>171</ele>
        <time>2025-02-21T18:30:59Z</time>
      </trkpt>
      <trkpt lat="46.1773" lon="4.78728">
        <ele>170</ele>
        <time>2025-02-21T18:31:28Z</time>
      </trkpt>
      <trkpt lat="46.17769" lon="4.78712">
        <ele>170</ele>
        <time>2025-02-21T18:32:22Z</time>
      </trkpt>
      <trkpt lat="46.17924" lon="4.78705">
        <ele>169</ele>
        <time>2025-02-21T18:35:49Z</time>
      </trkpt>
      <trkpt lat="46.17993" lon="4.78704">
        <ele>170</ele>
        <time>2025-02-21T18:37:21Z</time>
      </trkpt>
      <trkpt lat="46.18077" lon="4.78709">
        <ele>172</ele>
        <time>2025-02-21T18:39:13Z</time>
      </trkpt>
      <trkpt lat="46.18205" lon="4.78672">
        <ele>171</ele>
        <time>2025-02-21T18:42:07Z</time>
      </trkpt>
      <trkpt lat="46.18232" lon="4.78657">
        <ele>172</ele>
        <time>2025-02-21T18:42:46Z</time>
      </trkpt>
      <trkpt lat="46.18282" lon="4.78202">
        <ele>170</ele>
        <time>2025-02-21T18:49:51Z</time>
      </trkpt>
      <trkpt lat="46.17767" lon="4.78221">
        <ele>167</ele>
        <time>2025-02-21T19:01:19Z</time>
      </trkpt>
      <trkpt lat="46.17341" lon="4.78312">
        <ele>168</ele>
        <time>2025-02-21T19:10:53Z</time>
      </trkpt>
      <trkpt lat="46.17029" lon="4.78476">
        <ele>170</ele>
        <time>2025-02-21T19:18:17Z</time>
      </trkpt>
      <trkpt lat="46.16827" lon="4.78617">
        <ele>170</ele>
        <time>2025-02-21T19:23:16Z</time>
      </trkpt>
      <trkpt lat="46.16714" lon="4.78727">
        <ele>168</ele>
        <time>2025-02-21T19:26:18Z</time>
      </trkpt>
      <trkpt lat="46.16569" lon="4.79024">
        <ele>169</ele>
        <time>2025-02-21T19:31:54Z</time>
      </trkpt>
      <trkpt lat="46.16533" lon="4.79088">
        <ele>171</ele>
        <time>2025-02-21T19:33:10Z</time>
      </trkpt>
      <trkpt lat="46.16511" lon="4.79161">
        <ele>171</ele>
        <time>2025-02-21T19:34:23Z</time>
      </trkpt>
      <trkpt lat="46.16511" lon="4.79224">
        <ele>170</ele>
        <time>2025-02-21T19:35:22Z</time>
      </trkpt>
      <trkpt lat="46.1649" lon="4.79261">
        <ele>169</ele>
        <time>2025-02-21T19:36:06Z</time>
      </trkpt>
      <trkpt lat="46.16363" lon="4.79493">
        <ele>168</ele>
        <time>2025-02-21T19:40:39Z</time>
      </trkpt>
      <trkpt lat="46.16352" lon="4.79535">
        <ele>168</ele>
        <time>2025-02-21T19:41:21Z</time>
      </trkpt>
      <trkpt lat="46.16336" lon="4.79603">
        <ele>169</ele>
        <time>2025-02-21T19:42:27Z</time>
      </trkpt>
      <trkpt lat="46.16289" lon="4.79703">
        <ele>169</ele>
        <time>2025-02-21T19:44:19Z</time>
      </trkpt>
      <trkpt lat="46.16207" lon="4.79848">
        <ele>169</ele>
        <time>2025-02-21T19:47:12Z</time>
      </trkpt>
      <trkpt lat="46.16078" lon="4.8009">
        <ele>168</ele>
        <time>2025-02-21T19:51:54Z</time>
      </trkpt>
      <trkpt lat="46.16018" lon="4.80154">
        <ele>170</ele>
        <time>2025-02-21T19:53:34Z</time>
      </trkpt>
      <trkpt lat="46.15956" lon="4.80265">
        <ele>169</ele>
        <time>2025-02-21T19:55:45Z</time>
      </trkpt>
      <trkpt lat="46.15873" lon="4.80373">
        <ele>171</ele>
        <time>2025-02-21T19:58:14Z</time>
      </trkpt>
      <trkpt lat="46.15785" lon="4.80444">
        <ele>170</ele>
        <time>2025-02-21T20:00:29Z</time>
      </trkpt>
      <trkpt lat="46.15713" lon="4.80459">
        <ele>169</ele>
        <time>2025-02-21T20:02:06Z</time>
      </trkpt>
      <trkpt lat="46.1548" lon="4.80534">
        <ele>171</ele>
        <time>2025-02-21T20:07:25Z</time>
      </trkpt>
      <trkpt lat="46.15314" lon="4.80487">
        <ele>170</ele>
        <time>2025-02-21T20:11:10Z</time>
      </trkpt>
      <trkpt lat="46.15034" lon="4.80404">
        <ele>167</ele>
        <time>2025-02-21T20:17:32Z</time>
      </trkpt>
      <trkpt lat="46.14825" lon="4.8032">
        <ele>170</ele>
        <time>2025-02-21T20:22:21Z</time>
      </trkpt>
      <trkpt lat="46.14629" lon="4.80235">
        <ele>167</ele>
        <time>2025-02-21T20:26:54Z</time>
      </trkpt>
      <trkpt lat="46.14594" lon="4.80249">
        <ele>167</ele>
        <time>2025-02-21T20:27:43Z</time>
      </trkpt>
      <trkpt lat="46.14385" lon="4.80203">
        <ele>168</ele>
        <time>2025-02-21T20:32:25Z</time>
      </trkpt>
      <trkpt lat="46.14215" lon="4.80095">
        <ele>168</ele>
        <time>2025-02-21T20:36:33Z</time>
      </trkpt>
      <trkpt lat="46.14061" lon="4.79977">
        <ele>169</ele>
        <time>2025-02-21T20:40:26Z</time>
      </trkpt>
      <trkpt lat="46.13848" lon="4.79742">
        <ele>170</ele>
        <time>2025-02-21T20:46:23Z</time>
      </trkpt>
      <trkpt lat="46.13703" lon="4.80011">
        <ele>171</ele>
        <time>2025-02-21T20:51:38Z</time>
      </trkpt>
      <trkpt lat="46.13625" lon="4.80227">
        <ele>178</ele>
        <time>2025-02-21T20:55:24Z</time>
      </trkpt>
      <trkpt lat="46.13594" lon="4.80236">
        <ele>178</ele>
        <time>2025-02-21T20:56:06Z</time>
      </trkpt>
      <trkpt lat="46.13557" lon="4.80285">
        <ele>181</ele>
        <time>2025-02-21T20:57:13Z</time>
      </trkpt>
      <trkpt lat="46.13742" lon="4.80572">
        <ele>198</ele>
        <time>2025-02-21T21:03:15Z</time>
      </trkpt>
      <trkpt lat="46.138" lon="4.80632">
        <ele>199</ele>
        <time>2025-02-21T21:04:51Z</time>
      </trkpt>
      <trkpt lat="46.13865" lon="4.80758">
        <ele>206</ele>
        <time>2025-02-21T21:07:16Z</time>
      </trkpt>
      <trkpt lat="46.13962" lon="4.80794">
        <ele>205</ele>
        <time>2025-02-21T21:09:30Z</time>
      </trkpt>
      <trkpt lat="46.14043" lon="4.80766">
        <ele>198</ele>
        <time>2025-02-21T21:11:21Z</time>
      </trkpt>
      <trkpt lat="46.14033" lon="4.80898">
        <ele>209</ele>
        <time>2025-02-21T21:13:23Z</time>
      </trkpt>
      <trkpt lat="46.14024" lon="4.81006">
        <ele>212</ele>
        <time>2025-02-21T21:15:04Z</time>
      </trkpt>
      <trkpt lat="46.14018" lon="4.81058">
        <ele>213</ele>
        <time>2025-02-21T21:15:53Z</time>
      </trkpt>
      <trkpt lat="46.14044" lon="4.81106">
        <ele>209</ele>
        <time>2025-02-21T21:16:49Z</time>
      </trkpt>
      <trkpt lat="46.14" lon="4.81144">
        <ele>212</ele>
        <time>2025-02-21T21:17:58Z</time>
      </trkpt>
      <trkpt lat="46.13961" lon="4.81184">
        <ele>212</ele>
        <time>2025-02-21T21:19:01Z</time>
      </trkpt>
      <trkpt lat="46.13969" lon="4.81335">
        <ele>201</ele>
        <time>2025-02-21T21:21:21Z</time>
      </trkpt>
      <trkpt lat="46.13982" lon="4.81422">
        <ele>204</ele>
        <time>2025-02-21T21:22:44Z</time>
      </trkpt>
      <trkpt lat="46.14028" lon="4.81617">
        <ele>218</ele>
        <time>2025-02-21T21:25:54Z</time>
      </trkpt>
      <trkpt lat="46.14068" lon="4.81726">
        <ele>219</ele>
        <time>2025-02-21T21:27:48Z</time>
      </trkpt>
      <trkpt lat="46.1415" lon="4.81835">
        <ele>219</ele>
        <time>2025-02-21T21:30:17Z</time>
      </trkpt>
      <trkpt lat="46.1421" lon="4.81956">
        <ele>219</ele>
        <time>2025-02-21T21:32:35Z</time>
      </trkpt>
      <trkpt lat="46.14249" lon="4.82008">
        <ele>220</ele>
        <time>2025-02-21T21:33:45Z</time>
      </trkpt>
      <trkpt lat="46.14262" lon="4.82011">
        <ele>220</ele>
        <time>2025-02-21T21:34:03Z</time>
      </trkpt>
      <trkpt lat="46.14327" lon="4.82004">
        <ele>221</ele>
        <time>2025-02-21T21:35:30Z</time>
      </trkpt>
      <trkpt lat="46.14305" lon="4.82123">
        <ele>220</ele>
        <time>2025-02-21T21:37:24Z</time>
      </trkpt>
      <trkpt lat="46.14308" lon="4.82137">
        <ele>220</ele>
        <time>2025-02-21T21:37:37Z</time>
      </trkpt>
      <trkpt lat="46.14325" lon="4.82198">
        <ele>219</ele>
        <time>2025-02-21T21:38:38Z</time>
      </trkpt>
      <trkpt lat="46.14302" lon="4.8231">
        <ele>220</ele>
        <time>2025-02-21T21:40:26Z</time>
      </trkpt>
      <trkpt lat="46.14299" lon="4.82339">
        <ele>220</ele>
        <time>2025-02-21T21:40:53Z</time>
      </trkpt>
      <trkpt lat="46.14328" lon="4.8239">
        <ele>219</ele>
        <time>2025-02-21T21:41:54Z</time>
      </trkpt>
      <trkpt lat="46.14332" lon="4.82488">
        <ele>220</ele>
        <time>2025-02-21T21:43:25Z</time>
      </trkpt>
      <trkpt lat="46.1432" lon="4.82598">
        <ele>220</ele>
        <time>2025-02-21T21:45:08Z</time>
      </trkpt>
      <trkpt lat="46.1431" lon="4.82631">
        <ele>220</ele>
        <time>2025-02-21T21:45:41Z</time>
      </trkpt>
      <trkpt lat="46.143" lon="4.82672">
        <ele>220</ele>
        <time>2025-02-21T21:46:22Z</time>
      </trkpt>
      <trkpt lat="46.14263" lon="4.82734">
        <ele>222</ele>
        <time>2025-02-21T21:47:37Z</time>
      </trkpt>
      <trkpt lat="46.14266" lon="4.82753">
        <ele>222</ele>
        <time>2025-02-21T21:47:55Z</time>
      </trkpt>
      <trkpt lat="46.14376" lon="4.82826">
        <ele>222</ele>
        <time>2025-02-21T21:50:37Z</time>
      </trkpt>
      <trkpt lat="46.14484" lon="4.82921">
        <ele>225</ele>
        <time>2025-02-21T21:53:26Z</time>
      </trkpt>
      <trkpt lat="46.14512" lon="4.82963">
        <ele>225</ele>
        <time>2025-02-21T21:54:19Z</time>
      </trkpt>
      <trkpt lat="46.14552" lon="4.83046">
        <ele>224</ele>
        <time>2025-02-21T21:55:53Z</time>
      </trkpt>
      <trkpt lat="46.14608" lon="4.83055">
        <ele>224</ele>
        <time>2025-02-21T21:57:08Z</time>
      </trkpt>
      <trkpt lat="46.14748" lon="4.83078">
        <ele>223</ele>
        <time>2025-02-21T22:00:16Z</time>
      </trkpt>
      <trkpt lat="46.14939" lon="4.83101">
        <ele>220</ele>
        <time>2025-02-21T22:04:32Z</time>
      </trkpt>
      <trkpt lat="46.15" lon="4.83123">
        <ele>219</ele>
        <time>2025-02-21T22:05:56Z</time>
      </trkpt>
      <trkpt lat="46.15097" lon="4.83118">
        <ele>221</ele>
        <time>2025-02-21T22:08:05Z</time>
      </trkpt>
      <trkpt lat="46.15289" lon="4.83153">
        <ele>217</ele>
        <time>2025-02-21T22:12:24Z</time>
      </trkpt>
      <trkpt lat="46.15443" lon="4.83207">
        <ele>212</ele>
        <time>2025-02-21T22:15:55Z</time>
      </trkpt>
      <trkpt lat="46.15531" lon="4.83232">
        <ele>213</ele>
        <time>2025-02-21T22:17:55Z</time>
      </trkpt>
      <trkpt lat="46.15712" lon="4.83522">
        <ele>205</ele>
        <time>2025-02-21T22:23:56Z</time>
      </trkpt>
      <trkpt lat="46.1576" lon="4.83372">
        <ele>206</ele>
        <time>2025-02-21T22:26:28Z</time>
      </trkpt>
      <trkpt lat="46.15776" lon="4.83265">
        <ele>208</ele>
        <time>2025-02-21T22:28:10Z</time>
      </trkpt>
      <trkpt lat="46.15803" lon="4.83063">
        <ele>207</ele>
        <time>2025-02-21T22:31:20Z</time>
      </trkpt>
      <trkpt lat="46.15817" lon="4.82887">
        <ele>204</ele>
        <time>2025-02-21T22:34:03Z</time>
      </trkpt>
      <trkpt lat="46.15853" lon="4.82886">
        <ele>203</ele>
        <time>2025-02-21T22:34:51Z</time>
      </trkpt>
      <trkpt lat="46.15922" lon="4.8284">
        <ele>203</ele>
        <time>2025-02-21T22:36:33Z</time>
      </trkpt>
      <trkpt lat="46.16038" lon="4.82835">
        <ele>200</ele>
        <time>2025-02-21T22:39:08Z</time>
      </trkpt>
      <trkpt lat="46.16076" lon="4.82822">
        <ele>200</ele>
        <time>2025-02-21T22:40:00Z</time>
      </trkpt>
      <trkpt lat="46.1609" lon="4.82789">
        <ele>201</ele>
        <time>2025-02-21T22:40:36Z</time>
      </trkpt>
      <trkpt lat="46.16101" lon="4.82586">
        <ele>207</ele>
        <time>2025-02-21T22:43:44Z</time>
      </trkpt>
      <trkpt lat="46.16097" lon="4.82549">
        <ele>207</ele>
        <time>2025-02-21T22:44:18Z</time>
      </trkpt>
      <trkpt lat="46.16065" lon="4.82483">
        <ele>206</ele>
        <time>2025-02-21T22:45:33Z</time>
      </trkpt>
      <trkpt lat="46.16063" lon="4.82376">
        <ele>202</ele>
        <time>2025-02-21T22:47:12Z</time>
      </trkpt>
      <trkpt lat="46.16029" lon="4.82296">
        <ele>199</ele>
        <time>2025-02-21T22:48:39Z</time>
      </trkpt>
      <trkpt lat="46.16098" lon="4.82252">
        <ele>197</ele>
        <time>2025-02-21T22:50:19Z</time>
      </trkpt>
      <trkpt lat="46.16159" lon="4.82224">
        <ele>195</ele>
        <time>2025-02-21T22:51:45Z</time>
      </trkpt>
      <trkpt lat="46.16242" lon="4.82206">
        <ele>194</ele>
        <time>2025-02-21T22:53:37Z</time>
      </trkpt>
      <trkpt lat="46.16331" lon="4.82299">
        <ele>197</ele>
        <time>2025-02-21T22:56:03Z</time>
      </trkpt>
      <trkpt lat="46.16449" lon="4.8233">
        <ele>199</ele>
        <time>2025-02-21T22:58:43Z</time>
      </trkpt>
      <trkpt lat="46.16541" lon="4.82355">
        <ele>199</ele>
        <time>2025-02-21T23:00:48Z</time>
      </trkpt>
      <trkpt lat="46.16565" lon="4.8233">
        <ele>198</ele>
        <time>2025-02-21T23:01:28Z</time>
      </trkpt>
      <trkpt lat="46.16713" lon="4.82337">
        <ele>195</ele>
        <time>2025-02-21T23:04:45Z</time>
      </trkpt>
      <trkpt lat="46.16777" lon="4.82312">
        <ele>192</ele>
        <time>2025-02-21T23:06:14Z</time>
      </trkpt>
      <trkpt lat="46.16814" lon="4.82269">
        <ele>190</ele>
        <time>2025-02-21T23:07:17Z</time>
      </trkpt>
      <trkpt lat="46.16852" lon="4.8213">
        <ele>187</ele>
        <time>2025-02-21T23:09:35Z</time>
      </trkpt>
      <trkpt lat="46.16894" lon="4.82081">
        <ele>186</ele>
        <time>2025-02-21T23:10:47Z</time>
      </trkpt>
      <trkpt lat="46.16899" lon="4.82057">
        <ele>186</ele>
        <time>2025-02-21T23:11:11Z</time>
      </trkpt>
      <trkpt lat="46.169" lon="4.82003">
        <ele>186</ele>
        <time>2025-02-21T23:12:01Z</time>
      </trkpt>
      <trkpt lat="46.1693" lon="4.81982">
        <ele>184</ele>
        <time>2025-02-21T23:12:45Z</time>
      </trkpt>
      <trkpt lat="46.1694" lon="4.81973">
        <ele>184</ele>
        <time>2025-02-21T23:13:01Z</time>
      </trkpt>
      <trkpt lat="46.16948" lon="4.81947">
        <ele>184</ele>
        <time>2025-02-21T23:13:27Z</time>
      </trkpt>
      <trkpt lat="46.16954" lon="4.81933">
        <ele>184</ele>
        <time>2025-02-21T23:13:42Z</time>
      </trkpt>
      <trkpt lat="46.16971" lon="4.81954">
        <ele>184</ele>
        <time>2025-02-21T23:14:12Z</time>
      </trkpt>
      <trkpt lat="46.17025" lon="4.8193">
        <ele>183</ele>
        <time>2025-02-21T23:15:27Z</time>
      </trkpt>
      <trkpt lat="46.17065" lon="4.81919">
        <ele>180</ele>
        <time>2025-02-21T23:16:22Z</time>
      </trkpt>
      <trkpt lat="46.17101" lon="4.81901">
        <ele>179</ele>
        <time>2025-02-21T23:17:13Z</time>
      </trkpt>
      <trkpt lat="46.1713" lon="4.81878">
        <ele>178</ele>
        <time>2025-02-21T23:17:57Z</time>
      </trkpt>
      <trkpt lat="46.17156" lon="4.81876">
        <ele>176</ele>
        <time>2025-02-21T23:18:32Z</time>
      </trkpt>
      <trkpt lat="46.17222" lon="4.81918">
        <ele>176</ele>
        <time>2025-02-21T23:20:08Z</time>
      </trkpt>
      <trkpt lat="46.17216" lon="4.81822">
        <ele>176</ele>
        <time>2025-02-21T23:21:37Z</time>
      </trkpt>
      <trkpt lat="46.17249" lon="4.8179">
        <ele>176</ele>
        <time>2025-02-21T23:22:30Z</time>
      </trkpt>
      <trkpt lat="46.17271" lon="4.81785">
        <ele>176</ele>
        <time>2025-02-21T23:23:00Z</time>
      </trkpt>
      <trkpt lat="46.17283" lon="4.81773">
        <ele>176</ele>
        <time>2025-02-21T23:23:19Z</time>
      </trkpt>
      <trkpt lat="46.17305" lon="4.81763">
        <ele>176</ele>
        <time>2025-02-21T23:23:50Z</time>
      </trkpt>
      <trkpt lat="46.17321" lon="4.81742">
        <ele>176</ele>
        <time>2025-02-21T23:24:19Z</time>
      </trkpt>
      <trkpt lat="46.17368" lon="4.81711">
        <ele>176</ele>
        <time>2025-02-21T23:25:28Z</time>
      </trkpt>
      <trkpt lat="46.17408" lon="4.81703">
        <ele>175</ele>
        <time>2025-02-21T23:26:22Z</time>
      </trkpt>
      <trkpt lat="46.17464" lon="4.81639">
        <ele>175</ele>
        <time>2025-02-21T23:27:57Z</time>
      </trkpt>
      <trkpt lat="46.17478" lon="4.81637">
        <ele>175</ele>
        <time>2025-02-21T23:28:16Z</time>
      </trkpt>
      <trkpt lat="46.17493" lon="4.81647">
        <ele>175</ele>
        <time>2025-02-21T23:28:38Z</time>
      </trkpt>
      <trkpt lat="46.17501" lon="4.81648">
        <ele>175</ele>
        <time>2025-02-21T23:28:48Z</time>
      </trkpt>
      <trkpt lat="46.17509" lon="4.81643">
        <ele>175</ele>
        <time>2025-02-21T23:29:00Z</time>
      </trkpt>
      <trkpt lat="46.17523" lon="4.81591">
        <ele>176</ele>
        <time>2025-02-21T23:29:52Z</time>
      </trkpt>
      <trkpt lat="46.17545" lon="4.81552">
        <ele>175</ele>
        <time>2025-02-21T23:30:38Z</time>
      </trkpt>
      <trkpt lat="46.17554" lon="4.81516">
        <ele>174</ele>
        <time>2025-02-21T23:31:13Z</time>
      </trkpt>
      <trkpt lat="46.17548" lon="4.81512">
        <ele>174</ele>
        <time>2025-02-21T23:31:22Z</time>
      </trkpt>
      <trkpt lat="46.17558" lon="4.81489">
        <ele>174</ele>
        <time>2025-02-21T23:31:47Z</time>
      </trkpt>
      <trkpt lat="46.17583" lon="4.81451">
        <ele>174</ele>
        <time>2025-02-21T23:32:36Z</time>
      </trkpt>
      <trkpt lat="46.17524" lon="4.81433">
        <ele>174</ele>
        <time>2025-02-21T23:33:56Z</time>
      </trkpt>
      <trkpt lat="46.17508" lon="4.81441">
        <ele>174</ele>
        <time>2025-02-21T23:34:19Z</time>
      </trkpt>
      <trkpt lat="46.17461" lon="4.81374">
        <ele>173</ele>
        <time>2025-02-21T23:35:47Z</time>
      </trkpt>
      <trkpt lat="46.1745" lon="4.81383">
        <ele>174</ele>
        <time>2025-02-21T23:36:04Z</time>
      </trkpt>
      <trkpt lat="46.17434" lon="4.81369">
        <ele>173</ele>
        <time>2025-02-21T23:36:29Z</time>
      </trkpt>
      <trkpt lat="46.17374" lon="4.81359">
        <ele>175</ele>
        <time>2025-02-21T23:37:49Z</time>
      </trkpt>
      <trkpt lat="46.17331" lon="4.81341">
        <ele>176</ele>
        <time>2025-02-21T23:38:49Z</time>
      </trkpt>
      <trkpt lat="46.17303" lon="4.81325">
        <ele>175</ele>
        <time>2025-02-21T23:39:29Z</time>
      </trkpt>
      <trkpt lat="46.17274" lon="4.8128">
        <ele>174</ele>
        <time>2025-02-21T23:40:26Z</time>
      </trkpt>
      <trkpt lat="46.17262" lon="4.8125">
        <ele>174</ele>
        <time>2025-02-21T23:40:58Z</time>
      </trkpt>
      <trkpt lat="46.17241" lon="4.80955">
        <ele>171</ele>
        <time>2025-02-21T23:45:32Z</time>
      </trkpt>
      <trkpt lat="46.17241" lon="4.80947">
        <ele>172</ele>
        <time>2025-02-21T23:45:40Z</time>
      </trkpt>
      <trkpt lat="46.17223" lon="4.80846">
        <ele>172</ele>
        <time>2025-02-21T23:47:16Z</time>
      </trkpt>
      <trkpt lat="46.17204" lon="4.80747">
        <ele>173</ele>
        <time>2025-02-21T23:48:51Z</time>
      </trkpt>
      <trkpt lat="46.17186" lon="4.80639">
        <ele>175</ele>
        <time>2025-02-21T23:50:34Z</time>
      </trkpt>
      <trkpt lat="46.17195" lon="4.8063">
        <ele>175</ele>
        <time>2025-02-21T23:50:48Z</time>
      </trkpt>
      <trkpt lat="46.17177" lon="4.80551">
        <ele>175</ele>
        <time>2025-02-21T23:52:05Z</time>
      </trkpt>
      <trkpt lat="46.17174" lon="4.80467">
        <ele>174</ele>
        <time>2025-02-21T23:53:23Z</time>
      </trkpt>
      <trkpt lat="46.17198" lon="4.8044">
        <ele>174</ele>
        <time>2025-02-21T23:54:03Z</time>
      </trkpt>
      <trkpt lat="46.1719" lon="4.80409">
        <ele>174</ele>
        <time>2025-02-21T23:54:34Z</time>
      </trkpt>
      <trkpt lat="46.17181" lon="4.80378">
        <ele>173</ele>
        <time>2025-02-21T23:55:05Z</time>
      </trkpt>
      <trkpt lat="46.1717" lon="4.80348">
        <ele>173</ele>
        <time>2025-02-21T23:55:36Z</time>
      </trkpt>
      <trkpt lat="46.17158" lon="4.80331">
        <ele>173</ele>
        <time>2025-02-21T23:55:59Z</time>
      </trkpt>
      <trkpt lat="46.17161" lon="4.80315">
        <ele>174</ele>
        <time>2025-02-21T23:56:14Z</time>
      </trkpt>
      <trkpt lat="46.17168" lon="4.80311">
        <ele>174</ele>
        <time>2025-02-21T23:56:24Z</time>
      </trkpt>
      <trkpt lat="46.17161" lon="4.80276">
        <ele>175</ele>
        <time>2025-02-21T23:56:58Z</time>
      </trkpt>
      <trkpt lat="46.1716" lon="4.80272">
        <ele>175</ele>
        <time>2025-02-21T23:57:02Z</time>
      </trkpt>
      <trkpt lat="46.1716" lon="4.80268">
        <ele>175</ele>
        <time>2025-02-21T23:57:05Z</time>
      </trkpt>
    </trkseg>
  </trk>
</gpx>